sensor_id;sensor_type;location;lat;lon;timestamp;temperature;humidity
35804;DHT22;21924;51.934;7.414;2023-01-15T00:00:25;6.10;99.90
35804;DHT22;21924;51.934;7.414;2023-01-15T00:03:09;6.10;99.90
35804;DHT22;21924;51.934;7.414;2023-01-15T00:05:54;6.10;99.90
35804;DHT22;21924;51.934;7.414;2023-01-15T00:08:38;6.00;99.90
35804;DHT22;21924;51.934;7.414;2023-01-15T00:11:22;6.00;99.90
35804;DHT22;21924;51.934;7.414;2023-01-15T00:14:07;6.00;99.90
35804;DHT22;21924;51.934;7.414;2023-01-15T00:16:52;6.00;99.90
35804;DHT22;21924;51.934;7.414;2023-01-15T00:19:36;6.00;99.90
35804;DHT22;21924;51.934;7.414;2023-01-15T00:22:20;6.00;99.90
35804;DHT22;21924;51.934;7.414;2023-01-15T00:25:05;6.00;99.90
35804;DHT22;21924;51.934;7.414;2023-01-15T00:28:12;6.00;99.90
35804;DHT22;21924;51.934;7.414;2023-01-15T00:30:57;5.90;99.90
35804;DHT22;21924;51.934;7.414;2023-01-15T00:33:41;5.90;99.90
35804;DHT22;21924;51.934;7.414;2023-01-15T00:36:25;6.00;99.90
35804;DHT22;21924;51.934;7.414;2023-01-15T00:39:10;5.90;99.90
35804;DHT22;21924;51.934;7.414;2023-01-15T00:41:54;5.90;99.90
35804;DHT22;21924;51.934;7.414;2023-01-15T00:44:39;5.90;99.90
35804;DHT22;21924;51.934;7.414;2023-01-15T00:47:24;5.90;99.90
35804;DHT22;21924;51.934;7.414;2023-01-15T00:50:13;5.90;99.90
35804;DHT22;21924;51.934;7.414;2023-01-15T00:52:57;5.90;99.90
35804;DHT22;21924;51.934;7.414;2023-01-15T00:55:42;5.90;99.90
35804;DHT22;21924;51.934;7.414;2023-01-15T00:58:26;5.80;99.90
35804;DHT22;21924;51.934;7.414;2023-01-15T01:01:11;5.80;99.90
35804;DHT22;21924;51.934;7.414;2023-01-15T01:03:55;5.80;99.90
35804;DHT22;21924;51.934;7.414;2023-01-15T01:06:39;5.90;99.90
35804;DHT22;21924;51.934;7.414;2023-01-15T01:09:24;5.80;99.90
35804;DHT22;21924;51.934;7.414;2023-01-15T01:12:08;5.80;99.90
35804;DHT22;21924;51.934;7.414;2023-01-15T01:14:53;5.80;99.90
35804;DHT22;21924;51.934;7.414;2023-01-15T01:17:37;5.90;99.90
35804;DHT22;21924;51.934;7.414;2023-01-15T01:20:22;5.90;99.90
35804;DHT22;21924;51.934;7.414;2023-01-15T01:23:06;5.90;99.90
35804;DHT22;21924;51.934;7.414;2023-01-15T01:25:50;5.90;99.90
35804;DHT22;21924;51.934;7.414;2023-01-15T01:28:35;5.90;99.90
35804;DHT22;21924;51.934;7.414;2023-01-15T01:31:20;5.90;99.90
35804;DHT22;21924;51.934;7.414;2023-01-15T01:34:04;6.00;99.90
35804;DHT22;21924;51.934;7.414;2023-01-15T01:36:48;6.00;99.90
35804;DHT22;21924;51.934;7.414;2023-01-15T01:39:32;6.00;99.90
35804;DHT22;21924;51.934;7.414;2023-01-15T01:42:17;6.00;99.90
35804;DHT22;21924;51.934;7.414;2023-01-15T01:45:24;6.00;99.90
35804;DHT22;21924;51.934;7.414;2023-01-15T01:48:09;6.00;99.90
35804;DHT22;21924;51.934;7.414;2023-01-15T01:50:55;6.00;99.90
35804;DHT22;21924;51.934;7.414;2023-01-15T01:53:41;6.00;99.90
35804;DHT22;21924;51.934;7.414;2023-01-15T01:56:25;6.00;99.90
35804;DHT22;21924;51.934;7.414;2023-01-15T01:59:10;6.00;99.90
35804;DHT22;21924;51.934;7.414;2023-01-15T02:01:55;6.00;99.90
35804;DHT22;21924;51.934;7.414;2023-01-15T02:04:40;6.00;99.90
35804;DHT22;21924;51.934;7.414;2023-01-15T02:07:25;5.90;99.90
35804;DHT22;21924;51.934;7.414;2023-01-15T02:10:15;5.90;99.90
35804;DHT22;21924;51.934;7.414;2023-01-15T02:13:10;5.90;99.90
35804;DHT22;21924;51.934;7.414;2023-01-15T02:16:17;6.00;99.90
35804;DHT22;21924;51.934;7.414;2023-01-15T02:27:47;6.00;99.90
35804;DHT22;21924;51.934;7.414;2023-01-15T02:30:38;6.00;99.90
35804;DHT22;21924;51.934;7.414;2023-01-15T02:33:31;5.90;99.90
35804;DHT22;21924;51.934;7.414;2023-01-15T02:36:19;5.90;99.90
35804;DHT22;21924;51.934;7.414;2023-01-15T02:39:10;5.90;99.90
35804;DHT22;21924;51.934;7.414;2023-01-15T02:41:57;5.90;99.90
35804;DHT22;21924;51.934;7.414;2023-01-15T02:44:47;5.90;99.90
35804;DHT22;21924;51.934;7.414;2023-01-15T02:47:34;5.90;99.90
35804;DHT22;21924;51.934;7.414;2023-01-15T02:50:26;5.90;99.90
35804;DHT22;21924;51.934;7.414;2023-01-15T02:53:19;5.90;99.90
35804;DHT22;21924;51.934;7.414;2023-01-15T02:56:14;5.80;99.90
35804;DHT22;21924;51.934;7.414;2023-01-15T02:59:04;5.90;99.90
35804;DHT22;21924;51.934;7.414;2023-01-15T03:01:58;5.80;99.90
35804;DHT22;21924;51.934;7.414;2023-01-15T03:04:52;5.90;99.90
35804;DHT22;21924;51.934;7.414;2023-01-15T03:07:47;5.80;99.90
35804;DHT22;21924;51.934;7.414;2023-01-15T03:10:51;5.90;99.90
35804;DHT22;21924;51.934;7.414;2023-01-15T03:14:40;5.90;99.90
35804;DHT22;21924;51.934;7.414;2023-01-15T03:17:33;5.80;99.90
35804;DHT22;21924;51.934;7.414;2023-01-15T03:20:19;5.80;99.90
35804;DHT22;21924;51.934;7.414;2023-01-15T03:23:07;5.80;99.90
35804;DHT22;21924;51.934;7.414;2023-01-15T03:25:53;5.90;99.90
35804;DHT22;21924;51.934;7.414;2023-01-15T03:28:39;5.90;99.90
35804;DHT22;21924;51.934;7.414;2023-01-15T03:31:24;5.90;99.90
35804;DHT22;21924;51.934;7.414;2023-01-15T03:34:08;5.90;99.90
35804;DHT22;21924;51.934;7.414;2023-01-15T03:36:54;6.00;99.90
35804;DHT22;21924;51.934;7.414;2023-01-15T03:39:39;5.90;99.90
35804;DHT22;21924;51.934;7.414;2023-01-15T03:42:49;5.90;99.90
35804;DHT22;21924;51.934;7.414;2023-01-15T03:46:00;5.90;99.90
35804;DHT22;21924;51.934;7.414;2023-01-15T03:52:00;5.90;99.90
35804;DHT22;21924;51.934;7.414;2023-01-15T03:57:58;5.90;99.90
35804;DHT22;21924;51.934;7.414;2023-01-15T04:00:51;5.90;99.90
35804;DHT22;21924;51.934;7.414;2023-01-15T04:03:37;5.80;99.90
35804;DHT22;21924;51.934;7.414;2023-01-15T04:06:22;5.90;99.90
35804;DHT22;21924;51.934;7.414;2023-01-15T04:09:11;5.90;99.90
35804;DHT22;21924;51.934;7.414;2023-01-15T04:12:00;5.80;99.90
35804;DHT22;21924;51.934;7.414;2023-01-15T04:14:44;5.90;99.90
35804;DHT22;21924;51.934;7.414;2023-01-15T04:17:29;5.90;99.90
35804;DHT22;21924;51.934;7.414;2023-01-15T04:20:13;5.90;99.90
35804;DHT22;21924;51.934;7.414;2023-01-15T04:22:57;5.90;99.90
35804;DHT22;21924;51.934;7.414;2023-01-15T04:25:42;5.90;99.90
35804;DHT22;21924;51.934;7.414;2023-01-15T04:28:26;5.80;99.90
35804;DHT22;21924;51.934;7.414;2023-01-15T04:31:10;5.80;99.90
35804;DHT22;21924;51.934;7.414;2023-01-15T04:33:54;5.80;99.90
35804;DHT22;21924;51.934;7.414;2023-01-15T04:36:39;5.80;99.90
35804;DHT22;21924;51.934;7.414;2023-01-15T04:39:23;5.80;99.90
35804;DHT22;21924;51.934;7.414;2023-01-15T04:42:13;5.80;99.90
35804;DHT22;21924;51.934;7.414;2023-01-15T04:45:16;5.80;99.90
35804;DHT22;21924;51.934;7.414;2023-01-15T04:48:00;5.80;99.90
35804;DHT22;21924;51.934;7.414;2023-01-15T04:50:47;5.80;99.90
35804;DHT22;21924;51.934;7.414;2023-01-15T04:53:32;5.70;99.90
35804;DHT22;21924;51.934;7.414;2023-01-15T04:56:16;5.70;99.90
35804;DHT22;21924;51.934;7.414;2023-01-15T04:59:01;5.80;99.90
35804;DHT22;21924;51.934;7.414;2023-01-15T05:01:45;5.90;99.90
35804;DHT22;21924;51.934;7.414;2023-01-15T05:04:30;5.80;99.90
35804;DHT22;21924;51.934;7.414;2023-01-15T05:07:14;5.80;99.90
35804;DHT22;21924;51.934;7.414;2023-01-15T05:09:59;5.80;99.90
35804;DHT22;21924;51.934;7.414;2023-01-15T05:12:43;5.70;99.90
35804;DHT22;21924;51.934;7.414;2023-01-15T05:15:28;5.80;99.90
35804;DHT22;21924;51.934;7.414;2023-01-15T05:18:12;5.80;99.90
35804;DHT22;21924;51.934;7.414;2023-01-15T05:20:58;5.80;99.90
35804;DHT22;21924;51.934;7.414;2023-01-15T05:23:42;5.80;99.90
35804;DHT22;21924;51.934;7.414;2023-01-15T05:26:29;5.80;99.90
35804;DHT22;21924;51.934;7.414;2023-01-15T05:29:13;5.80;99.90
35804;DHT22;21924;51.934;7.414;2023-01-15T05:31:58;5.70;99.90
35804;DHT22;21924;51.934;7.414;2023-01-15T05:34:42;5.80;99.90
35804;DHT22;21924;51.934;7.414;2023-01-15T05:37:29;5.80;99.90
35804;DHT22;21924;51.934;7.414;2023-01-15T05:40:13;5.80;99.90
35804;DHT22;21924;51.934;7.414;2023-01-15T05:42:57;5.80;99.90
35804;DHT22;21924;51.934;7.414;2023-01-15T05:45:42;5.80;99.90
35804;DHT22;21924;51.934;7.414;2023-01-15T05:48:26;5.80;99.90
35804;DHT22;21924;51.934;7.414;2023-01-15T05:51:11;5.80;99.90
35804;DHT22;21924;51.934;7.414;2023-01-15T05:53:58;5.80;99.90
35804;DHT22;21924;51.934;7.414;2023-01-15T05:56:43;5.80;99.90
35804;DHT22;21924;51.934;7.414;2023-01-15T05:59:29;5.80;99.90
35804;DHT22;21924;51.934;7.414;2023-01-15T06:02:14;5.80;99.90
35804;DHT22;21924;51.934;7.414;2023-01-15T06:04:58;5.80;99.90
35804;DHT22;21924;51.934;7.414;2023-01-15T06:07:42;5.80;99.90
35804;DHT22;21924;51.934;7.414;2023-01-15T06:10:27;5.80;99.90
35804;DHT22;21924;51.934;7.414;2023-01-15T06:13:12;5.90;99.90
35804;DHT22;21924;51.934;7.414;2023-01-15T06:15:58;5.80;99.90
35804;DHT22;21924;51.934;7.414;2023-01-15T06:18:43;5.80;99.90
35804;DHT22;21924;51.934;7.414;2023-01-15T06:21:27;5.90;99.90
35804;DHT22;21924;51.934;7.414;2023-01-15T06:24:12;5.90;99.90
35804;DHT22;21924;51.934;7.414;2023-01-15T06:26:59;5.90;99.90
35804;DHT22;21924;51.934;7.414;2023-01-15T06:29:43;5.90;99.90
35804;DHT22;21924;51.934;7.414;2023-01-15T06:32:28;5.90;99.90
35804;DHT22;21924;51.934;7.414;2023-01-15T06:35:12;5.90;99.90
35804;DHT22;21924;51.934;7.414;2023-01-15T06:37:57;5.90;99.90
35804;DHT22;21924;51.934;7.414;2023-01-15T06:40:41;5.90;99.90
35804;DHT22;21924;51.934;7.414;2023-01-15T06:43:26;5.90;99.90
35804;DHT22;21924;51.934;7.414;2023-01-15T06:46:29;6.00;99.90
35804;DHT22;21924;51.934;7.414;2023-01-15T06:49:34;5.90;99.90
35804;DHT22;21924;51.934;7.414;2023-01-15T06:52:18;5.90;99.90
35804;DHT22;21924;51.934;7.414;2023-01-15T06:55:03;5.90;99.90
35804;DHT22;21924;51.934;7.414;2023-01-15T06:57:47;6.00;99.90
35804;DHT22;21924;51.934;7.414;2023-01-15T07:00:32;6.00;99.90
35804;DHT22;21924;51.934;7.414;2023-01-15T07:03:16;6.00;99.90
35804;DHT22;21924;51.934;7.414;2023-01-15T07:06:05;6.00;99.90
35804;DHT22;21924;51.934;7.414;2023-01-15T07:08:50;6.00;99.90
35804;DHT22;21924;51.934;7.414;2023-01-15T07:11:35;5.90;99.90
35804;DHT22;21924;51.934;7.414;2023-01-15T07:14:32;5.90;99.90
35804;DHT22;21924;51.934;7.414;2023-01-15T07:17:16;5.90;99.90
35804;DHT22;21924;51.934;7.414;2023-01-15T07:20:01;6.00;99.90
35804;DHT22;21924;51.934;7.414;2023-01-15T07:22:48;5.90;99.90
35804;DHT22;21924;51.934;7.414;2023-01-15T07:25:32;5.90;99.90
35804;DHT22;21924;51.934;7.414;2023-01-15T07:28:17;5.90;99.90
35804;DHT22;21924;51.934;7.414;2023-01-15T07:31:01;5.90;99.90
35804;DHT22;21924;51.934;7.414;2023-01-15T07:33:45;5.90;99.90
35804;DHT22;21924;51.934;7.414;2023-01-15T07:36:29;5.80;99.90
35804;DHT22;21924;51.934;7.414;2023-01-15T07:39:14;5.80;99.90
35804;DHT22;21924;51.934;7.414;2023-01-15T07:41:58;5.80;99.90
35804;DHT22;21924;51.934;7.414;2023-01-15T07:45:02;5.70;99.90
35804;DHT22;21924;51.934;7.414;2023-01-15T07:48:09;5.80;99.90
35804;DHT22;21924;51.934;7.414;2023-01-15T07:51:12;5.70;99.90
35804;DHT22;21924;51.934;7.414;2023-01-15T07:53:56;5.70;99.90
35804;DHT22;21924;51.934;7.414;2023-01-15T07:56:41;5.70;99.90
35804;DHT22;21924;51.934;7.414;2023-01-15T07:59:25;5.70;99.90
35804;DHT22;21924;51.934;7.414;2023-01-15T08:02:09;5.70;99.90
35804;DHT22;21924;51.934;7.414;2023-01-15T08:04:53;5.80;99.90
35804;DHT22;21924;51.934;7.414;2023-01-15T08:07:39;5.80;99.90
35804;DHT22;21924;51.934;7.414;2023-01-15T08:10:23;5.70;99.90
35804;DHT22;21924;51.934;7.414;2023-01-15T08:13:09;5.60;99.90
35804;DHT22;21924;51.934;7.414;2023-01-15T08:16:12;5.50;99.90
35804;DHT22;21924;51.934;7.414;2023-01-15T08:18:56;5.50;99.90
35804;DHT22;21924;51.934;7.414;2023-01-15T08:21:41;5.40;99.90
35804;DHT22;21924;51.934;7.414;2023-01-15T08:24:25;5.40;99.90
35804;DHT22;21924;51.934;7.414;2023-01-15T08:27:11;5.40;99.90
35804;DHT22;21924;51.934;7.414;2023-01-15T08:29:56;5.40;99.90
35804;DHT22;21924;51.934;7.414;2023-01-15T08:32:41;5.40;99.90
35804;DHT22;21924;51.934;7.414;2023-01-15T08:35:25;5.40;99.90
35804;DHT22;21924;51.934;7.414;2023-01-15T08:38:10;5.50;99.90
35804;DHT22;21924;51.934;7.414;2023-01-15T08:40:54;5.60;99.90
35804;DHT22;21924;51.934;7.414;2023-01-15T08:43:42;5.60;99.90
35804;DHT22;21924;51.934;7.414;2023-01-15T08:46:26;5.70;99.90
35804;DHT22;21924;51.934;7.414;2023-01-15T08:49:10;5.70;99.90
35804;DHT22;21924;51.934;7.414;2023-01-15T08:51:54;5.70;99.90
35804;DHT22;21924;51.934;7.414;2023-01-15T08:54:38;5.70;99.90
35804;DHT22;21924;51.934;7.414;2023-01-15T08:57:23;5.70;99.90
35804;DHT22;21924;51.934;7.414;2023-01-15T09:00:07;5.60;99.90
35804;DHT22;21924;51.934;7.414;2023-01-15T09:02:52;5.60;99.90
35804;DHT22;21924;51.934;7.414;2023-01-15T09:05:37;5.60;99.90
35804;DHT22;21924;51.934;7.414;2023-01-15T09:08:21;5.60;99.90
35804;DHT22;21924;51.934;7.414;2023-01-15T09:11:06;5.70;99.90
35804;DHT22;21924;51.934;7.414;2023-01-15T09:13:55;5.70;99.90
35804;DHT22;21924;51.934;7.414;2023-01-15T09:16:40;5.70;99.90
35804;DHT22;21924;51.934;7.414;2023-01-15T09:19:24;5.80;99.90
35804;DHT22;21924;51.934;7.414;2023-01-15T09:22:08;5.80;99.90
35804;DHT22;21924;51.934;7.414;2023-01-15T09:24:52;6.00;99.90
35804;DHT22;21924;51.934;7.414;2023-01-15T09:27:37;6.00;99.90
35804;DHT22;21924;51.934;7.414;2023-01-15T09:30:21;6.10;99.90
35804;DHT22;21924;51.934;7.414;2023-01-15T09:33:06;6.10;99.90
35804;DHT22;21924;51.934;7.414;2023-01-15T09:35:50;6.10;99.90
35804;DHT22;21924;51.934;7.414;2023-01-15T09:38:35;6.00;99.90
35804;DHT22;21924;51.934;7.414;2023-01-15T09:41:20;6.00;99.90
35804;DHT22;21924;51.934;7.414;2023-01-15T09:47:35;6.10;99.90
35804;DHT22;21924;51.934;7.414;2023-01-15T09:50:39;6.10;99.90
35804;DHT22;21924;51.934;7.414;2023-01-15T09:56:39;6.10;99.90
35804;DHT22;21924;51.934;7.414;2023-01-15T09:59:34;6.10;99.90
35804;DHT22;21924;51.934;7.414;2023-01-15T10:05:16;6.40;99.90
35804;DHT22;21924;51.934;7.414;2023-01-15T10:10:58;6.40;99.90
35804;DHT22;21924;51.934;7.414;2023-01-15T10:13:55;6.40;99.90
35804;DHT22;21924;51.934;7.414;2023-01-15T10:16:42;6.50;99.90
35804;DHT22;21924;51.934;7.414;2023-01-15T10:19:27;6.40;99.90
35804;DHT22;21924;51.934;7.414;2023-01-15T10:25:23;6.50;99.90
35804;DHT22;21924;51.934;7.414;2023-01-15T10:28:27;6.40;99.90
35804;DHT22;21924;51.934;7.414;2023-01-15T10:31:19;6.50;99.90
35804;DHT22;21924;51.934;7.414;2023-01-15T10:34:23;6.50;99.90
35804;DHT22;21924;51.934;7.414;2023-01-15T10:46:16;6.60;99.90
35804;DHT22;21924;51.934;7.414;2023-01-15T10:49:30;6.70;99.90
35804;DHT22;21924;51.934;7.414;2023-01-15T10:52:28;6.70;99.90
35804;DHT22;21924;51.934;7.414;2023-01-15T10:55:23;6.80;99.90
35804;DHT22;21924;51.934;7.414;2023-01-15T11:01:42;7.10;99.90
35804;DHT22;21924;51.934;7.414;2023-01-15T11:04:30;7.00;99.90
35804;DHT22;21924;51.934;7.414;2023-01-15T11:07:17;7.00;99.90
35804;DHT22;21924;51.934;7.414;2023-01-15T11:10:04;7.00;99.90
35804;DHT22;21924;51.934;7.414;2023-01-15T11:12:57;6.90;99.90
35804;DHT22;21924;51.934;7.414;2023-01-15T11:16:02;7.00;99.90
35804;DHT22;21924;51.934;7.414;2023-01-15T11:19:13;7.00;99.90
35804;DHT22;21924;51.934;7.414;2023-01-15T11:22:19;7.00;99.90
35804;DHT22;21924;51.934;7.414;2023-01-15T11:25:03;6.90;99.90
35804;DHT22;21924;51.934;7.414;2023-01-15T11:27:48;6.90;99.90
35804;DHT22;21924;51.934;7.414;2023-01-15T11:30:35;6.90;99.90
35804;DHT22;21924;51.934;7.414;2023-01-15T11:33:26;6.90;99.90
35804;DHT22;21924;51.934;7.414;2023-01-15T11:36:23;7.00;99.90
35804;DHT22;21924;51.934;7.414;2023-01-15T11:39:27;6.90;99.90
35804;DHT22;21924;51.934;7.414;2023-01-15T11:42:15;6.80;99.90
35804;DHT22;21924;51.934;7.414;2023-01-15T11:45:20;6.90;99.90
35804;DHT22;21924;51.934;7.414;2023-01-15T11:48:23;7.00;99.90
35804;DHT22;21924;51.934;7.414;2023-01-15T11:51:27;7.00;99.90
35804;DHT22;21924;51.934;7.414;2023-01-15T11:54:14;7.20;99.90
35804;DHT22;21924;51.934;7.414;2023-01-15T11:56:58;7.30;99.90
35804;DHT22;21924;51.934;7.414;2023-01-15T11:59:47;7.30;99.90
35804;DHT22;21924;51.934;7.414;2023-01-15T12:02:35;7.20;99.90
35804;DHT22;21924;51.934;7.414;2023-01-15T12:05:34;7.20;99.90
35804;DHT22;21924;51.934;7.414;2023-01-15T12:08:24;7.10;99.90
35804;DHT22;21924;51.934;7.414;2023-01-15T12:17:08;7.00;99.90
35804;DHT22;21924;51.934;7.414;2023-01-15T12:20:06;7.00;99.90
35804;DHT22;21924;51.934;7.414;2023-01-15T12:26:33;6.90;99.90
35804;DHT22;21924;51.934;7.414;2023-01-15T12:29:26;6.90;99.90
35804;DHT22;21924;51.934;7.414;2023-01-15T12:32:18;6.90;99.90
35804;DHT22;21924;51.934;7.414;2023-01-15T12:35:17;6.90;99.90
35804;DHT22;21924;51.934;7.414;2023-01-15T12:41:33;7.00;99.90
35804;DHT22;21924;51.934;7.414;2023-01-15T12:44:45;7.00;99.90
35804;DHT22;21924;51.934;7.414;2023-01-15T12:50:51;7.10;99.90
35804;DHT22;21924;51.934;7.414;2023-01-15T12:53:48;7.20;99.90
35804;DHT22;21924;51.934;7.414;2023-01-15T12:56:57;7.20;99.90
35804;DHT22;21924;51.934;7.414;2023-01-15T12:59:52;7.20;99.90
35804;DHT22;21924;51.934;7.414;2023-01-15T13:05:46;7.00;99.90
35804;DHT22;21924;51.934;7.414;2023-01-15T13:08:33;7.00;99.90
35804;DHT22;21924;51.934;7.414;2023-01-15T13:11:19;6.90;99.90
35804;DHT22;21924;51.934;7.414;2023-01-15T13:14:12;7.00;99.90
35804;DHT22;21924;51.934;7.414;2023-01-15T13:17:10;7.10;99.90
35804;DHT22;21924;51.934;7.414;2023-01-15T13:23:28;7.30;99.90
35804;DHT22;21924;51.934;7.414;2023-01-15T13:35:05;7.30;99.90
35804;DHT22;21924;51.934;7.414;2023-01-15T13:37:55;7.20;99.90
35804;DHT22;21924;51.934;7.414;2023-01-15T13:40:42;7.20;99.90
35804;DHT22;21924;51.934;7.414;2023-01-15T13:43:33;7.10;99.90
35804;DHT22;21924;51.934;7.414;2023-01-15T13:46:20;7.10;99.90
35804;DHT22;21924;51.934;7.414;2023-01-15T13:49:04;7.10;99.90
35804;DHT22;21924;51.934;7.414;2023-01-15T13:51:49;7.10;99.90
35804;DHT22;21924;51.934;7.414;2023-01-15T13:54:39;7.10;99.90
35804;DHT22;21924;51.934;7.414;2023-01-15T13:57:35;7.10;99.90
35804;DHT22;21924;51.934;7.414;2023-01-15T14:00:34;7.00;99.90
35804;DHT22;21924;51.934;7.414;2023-01-15T14:03:34;7.00;99.90
35804;DHT22;21924;51.934;7.414;2023-01-15T14:06:20;6.90;99.90
35804;DHT22;21924;51.934;7.414;2023-01-15T14:09:05;6.90;99.90
35804;DHT22;21924;51.934;7.414;2023-01-15T14:12:11;6.90;99.90
35804;DHT22;21924;51.934;7.414;2023-01-15T14:15:23;6.80;99.90
35804;DHT22;21924;51.934;7.414;2023-01-15T14:21:46;6.70;99.90
35804;DHT22;21924;51.934;7.414;2023-01-15T14:30:56;6.60;99.90
35804;DHT22;21924;51.934;7.414;2023-01-15T14:39:46;6.50;99.90
35804;DHT22;21924;51.934;7.414;2023-01-15T14:42:34;6.50;99.90
35804;DHT22;21924;51.934;7.414;2023-01-15T14:45:41;6.50;99.90
35804;DHT22;21924;51.934;7.414;2023-01-15T14:51:33;6.50;99.90
35804;DHT22;21924;51.934;7.414;2023-01-15T14:54:29;6.50;99.90
35804;DHT22;21924;51.934;7.414;2023-01-15T14:57:14;6.40;99.90
35804;DHT22;21924;51.934;7.414;2023-01-15T15:00:00;6.40;99.90
35804;DHT22;21924;51.934;7.414;2023-01-15T15:02:47;6.50;99.90
35804;DHT22;21924;51.934;7.414;2023-01-15T15:05:32;6.50;99.90
35804;DHT22;21924;51.934;7.414;2023-01-15T15:08:18;6.50;99.90
35804;DHT22;21924;51.934;7.414;2023-01-15T15:11:04;6.50;99.90
35804;DHT22;21924;51.934;7.414;2023-01-15T15:14:13;6.50;99.90
35804;DHT22;21924;51.934;7.414;2023-01-15T15:17:00;6.50;99.90
35804;DHT22;21924;51.934;7.414;2023-01-15T15:19:50;6.50;99.90
35804;DHT22;21924;51.934;7.414;2023-01-15T15:22:40;6.50;99.90
35804;DHT22;21924;51.934;7.414;2023-01-15T15:25:29;6.50;99.90
35804;DHT22;21924;51.934;7.414;2023-01-15T15:28:15;6.50;99.90
35804;DHT22;21924;51.934;7.414;2023-01-15T15:30:59;6.40;99.90
35804;DHT22;21924;51.934;7.414;2023-01-15T15:33:44;6.30;99.90
35804;DHT22;21924;51.934;7.414;2023-01-15T15:36:31;6.40;99.90
35804;DHT22;21924;51.934;7.414;2023-01-15T15:39:35;6.30;99.90
35804;DHT22;21924;51.934;7.414;2023-01-15T15:42:40;6.20;99.90
35804;DHT22;21924;51.934;7.414;2023-01-15T15:45:55;6.10;99.90
35804;DHT22;21924;51.934;7.414;2023-01-15T15:48:59;6.00;99.90
35804;DHT22;21924;51.934;7.414;2023-01-15T15:54:32;6.00;99.90
35804;DHT22;21924;51.934;7.414;2023-01-15T15:57:18;6.10;99.90
35804;DHT22;21924;51.934;7.414;2023-01-15T16:00:03;6.10;99.90
35804;DHT22;21924;51.934;7.414;2023-01-15T16:02:48;6.10;99.90
35804;DHT22;21924;51.934;7.414;2023-01-15T16:05:32;6.10;99.90
35804;DHT22;21924;51.934;7.414;2023-01-15T16:08:19;6.20;99.90
35804;DHT22;21924;51.934;7.414;2023-01-15T16:11:09;6.20;99.90
35804;DHT22;21924;51.934;7.414;2023-01-15T16:13:55;6.30;99.90
35804;DHT22;21924;51.934;7.414;2023-01-15T16:16:41;6.30;99.90
35804;DHT22;21924;51.934;7.414;2023-01-15T16:19:26;6.30;99.90
35804;DHT22;21924;51.934;7.414;2023-01-15T16:22:14;6.30;99.90
35804;DHT22;21924;51.934;7.414;2023-01-15T16:24:59;6.40;99.90
35804;DHT22;21924;51.934;7.414;2023-01-15T16:27:44;6.30;99.90
35804;DHT22;21924;51.934;7.414;2023-01-15T16:30:29;6.40;99.90
35804;DHT22;21924;51.934;7.414;2023-01-15T16:33:15;6.30;99.90
35804;DHT22;21924;51.934;7.414;2023-01-15T16:36:02;6.30;99.90
35804;DHT22;21924;51.934;7.414;2023-01-15T16:38:49;6.30;99.90
35804;DHT22;21924;51.934;7.414;2023-01-15T16:41:39;6.30;99.90
35804;DHT22;21924;51.934;7.414;2023-01-15T16:44:49;6.30;99.90
35804;DHT22;21924;51.934;7.414;2023-01-15T16:47:35;6.20;99.90
35804;DHT22;21924;51.934;7.414;2023-01-15T16:56:25;6.30;99.90
35804;DHT22;21924;51.934;7.414;2023-01-15T16:59:21;6.30;99.90
35804;DHT22;21924;51.934;7.414;2023-01-15T17:02:24;6.30;99.90
35804;DHT22;21924;51.934;7.414;2023-01-15T17:05:23;6.30;99.90
35804;DHT22;21924;51.934;7.414;2023-01-15T17:08:23;6.30;99.90
35804;DHT22;21924;51.934;7.414;2023-01-15T17:11:23;6.20;99.90
35804;DHT22;21924;51.934;7.414;2023-01-15T17:14:10;6.30;99.90
35804;DHT22;21924;51.934;7.414;2023-01-15T17:20:04;6.20;99.90
35804;DHT22;21924;51.934;7.414;2023-01-15T17:22:48;6.20;99.90
35804;DHT22;21924;51.934;7.414;2023-01-15T17:25:34;6.20;99.90
35804;DHT22;21924;51.934;7.414;2023-01-15T17:28:18;6.30;99.90
35804;DHT22;21924;51.934;7.414;2023-01-15T17:31:02;6.30;99.90
35804;DHT22;21924;51.934;7.414;2023-01-15T17:33:47;6.20;99.90
35804;DHT22;21924;51.934;7.414;2023-01-15T17:36:34;6.30;99.90
35804;DHT22;21924;51.934;7.414;2023-01-15T17:39:18;6.20;99.90
35804;DHT22;21924;51.934;7.414;2023-01-15T17:42:13;6.20;99.90
35804;DHT22;21924;51.934;7.414;2023-01-15T17:44:58;6.10;99.90
35804;DHT22;21924;51.934;7.414;2023-01-15T17:47:42;6.10;99.90
35804;DHT22;21924;51.934;7.414;2023-01-15T17:50:26;6.00;99.90
35804;DHT22;21924;51.934;7.414;2023-01-15T17:53:11;6.00;99.90
35804;DHT22;21924;51.934;7.414;2023-01-15T17:55:56;5.90;99.90
35804;DHT22;21924;51.934;7.414;2023-01-15T17:58:59;5.90;99.90
35804;DHT22;21924;51.934;7.414;2023-01-15T18:02:16;5.90;99.90
35804;DHT22;21924;51.934;7.414;2023-01-15T18:05:19;5.90;99.90
35804;DHT22;21924;51.934;7.414;2023-01-15T18:08:10;5.90;99.90
35804;DHT22;21924;51.934;7.414;2023-01-15T18:10:55;5.90;99.90
35804;DHT22;21924;51.934;7.414;2023-01-15T18:13:40;5.80;99.90
35804;DHT22;21924;51.934;7.414;2023-01-15T18:16:25;5.80;99.90
35804;DHT22;21924;51.934;7.414;2023-01-15T18:19:10;5.90;99.90
35804;DHT22;21924;51.934;7.414;2023-01-15T18:21:55;5.90;99.90
35804;DHT22;21924;51.934;7.414;2023-01-15T18:24:39;5.80;99.90
35804;DHT22;21924;51.934;7.414;2023-01-15T18:27:24;5.80;99.90
35804;DHT22;21924;51.934;7.414;2023-01-15T18:30:14;5.80;99.90
35804;DHT22;21924;51.934;7.414;2023-01-15T18:32:58;5.90;99.90
35804;DHT22;21924;51.934;7.414;2023-01-15T18:35:43;5.90;99.90
35804;DHT22;21924;51.934;7.414;2023-01-15T18:38:27;5.80;99.90
35804;DHT22;21924;51.934;7.414;2023-01-15T18:41:19;5.80;99.90
35804;DHT22;21924;51.934;7.414;2023-01-15T18:44:21;5.80;99.90
35804;DHT22;21924;51.934;7.414;2023-01-15T18:47:25;5.80;99.90
35804;DHT22;21924;51.934;7.414;2023-01-15T18:50:09;5.80;99.90
35804;DHT22;21924;51.934;7.414;2023-01-15T18:52:53;5.70;99.90
35804;DHT22;21924;51.934;7.414;2023-01-15T18:55:38;5.70;99.90
35804;DHT22;21924;51.934;7.414;2023-01-15T18:58:23;5.80;99.90
35804;DHT22;21924;51.934;7.414;2023-01-15T19:01:07;5.80;99.90
35804;DHT22;21924;51.934;7.414;2023-01-15T19:03:51;5.80;99.90
35804;DHT22;21924;51.934;7.414;2023-01-15T19:06:37;5.80;99.90
35804;DHT22;21924;51.934;7.414;2023-01-15T19:09:22;5.90;99.90
35804;DHT22;21924;51.934;7.414;2023-01-15T19:12:09;5.80;99.90
35804;DHT22;21924;51.934;7.414;2023-01-15T19:14:54;5.80;99.90
35804;DHT22;21924;51.934;7.414;2023-01-15T19:17:57;5.70;99.90
35804;DHT22;21924;51.934;7.414;2023-01-15T19:21:05;5.80;99.90
35804;DHT22;21924;51.934;7.414;2023-01-15T19:23:50;5.80;99.90
35804;DHT22;21924;51.934;7.414;2023-01-15T19:26:38;5.80;99.90
35804;DHT22;21924;51.934;7.414;2023-01-15T19:29:22;5.80;99.90
35804;DHT22;21924;51.934;7.414;2023-01-15T19:32:07;5.80;99.90
35804;DHT22;21924;51.934;7.414;2023-01-15T19:34:51;5.70;99.90
35804;DHT22;21924;51.934;7.414;2023-01-15T19:37:35;5.60;99.90
35804;DHT22;21924;51.934;7.414;2023-01-15T19:40:23;5.60;99.90
35804;DHT22;21924;51.934;7.414;2023-01-15T19:43:08;5.60;99.90
35804;DHT22;21924;51.934;7.414;2023-01-15T19:46:11;5.50;99.90
35804;DHT22;21924;51.934;7.414;2023-01-15T19:49:19;5.50;99.90